createdAt,value
2018-07-04T02:24:09.076Z,99.90
2018-07-04T02:26:56.627Z,99.90
2018-07-04T02:29:44.388Z,99.90
2018-07-04T02:32:31.705Z,99.90
2018-07-04T02:38:16.302Z,99.90
2018-07-04T02:41:03.798Z,99.90
2018-07-04T02:46:48.423Z,99.90
2018-07-04T02:49:35.633Z,99.90
2018-07-04T02:52:23.276Z,99.90
2018-07-04T02:55:10.658Z,99.90
2018-07-04T02:57:58.317Z,99.90
2018-07-04T03:00:45.619Z,99.90
2018-07-04T03:03:33.073Z,99.90
2018-07-04T03:06:20.486Z,99.90
2018-07-04T03:14:31.477Z,99.90
2018-07-04T03:17:19.149Z,99.90
2018-07-04T03:20:08.083Z,99.90
2018-07-04T03:22:55.529Z,99.90
2018-07-04T03:25:43.237Z,99.90
2018-07-04T03:33:53.839Z,99.90
2018-07-04T03:36:41.561Z,99.90
2018-07-04T03:39:29.193Z,99.90
2018-07-04T03:42:16.942Z,99.90
2018-07-04T03:45:04.222Z,99.90
2018-07-04T03:47:51.925Z,99.90
2018-07-04T03:50:39.359Z,99.90
2018-07-04T03:56:08.453Z,99.90
2018-07-04T03:58:56.114Z,99.90
2018-07-04T04:01:43.511Z,99.90
2018-07-04T04:04:30.961Z,99.90
2018-07-04T04:07:18.267Z,99.90
2018-07-04T04:10:05.890Z,99.90
2018-07-04T04:12:53.317Z,99.90
2018-07-04T04:15:41.195Z,99.90
2018-07-04T04:21:11.336Z,99.90
2018-07-04T04:23:58.709Z,99.90
2018-07-04T04:26:46.406Z,99.90
2018-07-04T04:29:34.041Z,99.90
2018-07-04T04:32:22.126Z,99.90
2018-07-04T04:35:09.454Z,99.50
2018-07-04T04:37:56.986Z,98.70
2018-07-04T04:40:44.414Z,98.00
2018-07-04T04:43:32.045Z,97.50
2018-07-04T04:46:19.474Z,93.50
2018-07-04T04:51:48.414Z,92.90
2018-07-04T04:54:35.982Z,91.40
2018-07-04T04:57:23.235Z,86.40
2018-07-04T05:00:11.022Z,85.00
2018-07-04T05:02:58.282Z,79.20
2018-07-04T05:05:45.858Z,76.70
2018-07-04T05:08:33.194Z,75.30
2018-07-04T05:11:20.646Z,75.80
2018-07-04T05:14:07.897Z,77.00
2018-07-04T05:16:55.557Z,74.90
2018-07-04T05:19:42.755Z,75.30
2018-07-04T05:25:12.907Z,74.70
2018-07-04T05:28:00.671Z,75.10
2018-07-04T05:30:48.067Z,72.30
2018-07-04T05:33:35.527Z,70.90
2018-07-04T05:36:22.915Z,70.30
2018-07-04T05:39:10.578Z,70.70
2018-07-04T05:41:57.772Z,67.40
2018-07-04T05:44:45.435Z,64.70
2018-07-04T05:50:14.441Z,64.30
2018-07-04T05:53:01.790Z,66.40
2018-07-04T05:55:49.390Z,65.60
2018-07-04T06:01:18.146Z,66.80
2018-07-04T06:06:47.035Z,65.20
2018-07-04T06:09:34.150Z,68.20
2018-07-04T06:12:21.814Z,68.30
2018-07-04T06:15:09.325Z,66.80
2018-07-04T06:17:57.158Z,64.70
2018-07-04T06:20:44.369Z,63.80
2018-07-04T06:23:33.565Z,61.50
2018-07-04T06:26:20.758Z,60.50
2018-07-04T06:29:08.426Z,62.20
2018-07-04T06:31:55.819Z,61.50
2018-07-04T06:34:43.141Z,62.00
2018-07-04T06:37:30.436Z,64.70
2018-07-04T06:40:00.693Z,75.30
2018-07-04T06:42:29.855Z,79.80
2018-07-04T06:47:28.538Z,82.70
2018-07-04T06:49:57.438Z,84.90
2018-07-04T06:54:56.281Z,90.30
2018-07-04T06:57:25.453Z,92.70
2018-07-04T06:59:54.559Z,95.30
2018-07-04T07:02:23.813Z,96.00
2018-07-04T07:05:05.239Z,96.70
2018-07-04T07:07:52.583Z,97.60
2018-07-04T07:10:39.990Z,98.80
2018-07-04T07:13:27.563Z,99.90
2018-07-04T07:16:14.895Z,99.90
2018-07-04T07:19:02.658Z,99.60
2018-07-04T07:21:49.885Z,97.90
2018-07-04T07:24:38.697Z,95.60
2018-07-04T07:27:26.112Z,95.40
2018-07-04T07:30:13.758Z,96.50
2018-07-04T07:33:01.074Z,94.20
2018-07-04T07:35:48.756Z,94.30
2018-07-04T07:38:36.030Z,94.50
2018-07-04T07:41:23.675Z,93.50
2018-07-04T07:44:10.886Z,96.60
2018-07-04T07:46:58.518Z,98.10
2018-07-04T07:49:45.710Z,99.90
2018-07-04T07:52:33.379Z,99.90
2018-07-04T07:55:20.906Z,99.90
2018-07-04T07:58:08.466Z,99.90
2018-07-04T08:00:55.763Z,99.90
2018-07-04T08:03:43.312Z,99.90
2018-07-04T08:06:30.579Z,99.90
2018-07-04T08:09:17.902Z,99.90
2018-07-04T08:12:05.129Z,99.90
2018-07-04T08:14:52.759Z,99.90
2018-07-04T08:17:40.191Z,99.90
2018-07-04T08:20:27.709Z,99.90
2018-07-04T08:23:14.929Z,99.90
2018-07-04T08:26:03.478Z,99.90
2018-07-04T08:28:50.906Z,99.90
2018-07-04T08:31:38.466Z,99.90
2018-07-04T08:34:25.862Z,99.90
2018-07-04T08:37:13.630Z,99.90
2018-07-04T08:40:00.922Z,99.90
2018-07-04T08:42:48.771Z,99.90
2018-07-04T08:45:36.001Z,99.90
2018-07-04T08:48:23.728Z,99.90
2018-07-04T08:51:11.235Z,99.90
2018-07-04T08:53:59.054Z,99.90
2018-07-04T08:56:46.351Z,99.90
2018-07-04T08:59:34.011Z,99.90
2018-07-04T09:02:21.303Z,99.90
2018-07-04T09:05:08.862Z,99.90
2018-07-04T09:07:55.919Z,99.90
2018-07-04T09:10:43.442Z,99.90
2018-07-04T09:13:31.787Z,99.90
2018-07-04T09:16:19.418Z,99.90
2018-07-04T09:19:06.907Z,99.90
2018-07-04T09:21:54.795Z,99.90
2018-07-04T09:24:42.319Z,99.90
2018-07-04T09:27:31.425Z,99.90
2018-07-04T09:30:18.809Z,99.90
2018-07-04T09:33:06.410Z,99.90
2018-07-04T09:35:53.591Z,99.90
2018-07-04T09:38:41.199Z,99.90
2018-07-04T09:41:28.646Z,99.90
2018-07-04T09:44:16.453Z,99.90
2018-07-04T09:49:45.466Z,99.90
2018-07-04T09:55:14.750Z,99.90
2018-07-04T09:58:02.426Z,99.90
2018-07-04T10:03:36.059Z,99.90
2018-07-04T10:06:23.790Z,99.90
2018-07-04T10:09:11.228Z,99.90
2018-07-04T10:11:59.131Z,99.90
2018-07-04T10:14:46.479Z,99.90
2018-07-04T10:17:33.838Z,99.90
2018-07-04T10:23:02.963Z,99.90
2018-07-04T10:25:50.334Z,99.90
2018-07-04T10:28:39.784Z,99.90
2018-07-04T10:31:27.307Z,99.80
2018-07-04T10:34:15.208Z,97.50
2018-07-04T10:37:02.614Z,96.40
2018-07-04T10:39:50.253Z,95.80
2018-07-04T10:42:37.579Z,94.70
2018-07-04T10:45:25.386Z,94.90
2018-07-04T10:50:54.809Z,96.40
2018-07-04T10:59:05.790Z,96.50
2018-07-04T11:01:53.429Z,95.80
2018-07-04T11:04:41.059Z,94.70
2018-07-04T11:07:28.770Z,93.80
2018-07-04T11:10:16.167Z,92.80
2018-07-04T11:13:03.596Z,91.80
2018-07-04T11:15:51.055Z,92.40
2018-07-04T11:18:38.659Z,93.50
2018-07-04T11:21:26.106Z,94.60
2018-07-04T11:24:13.819Z,94.90
2018-07-04T11:27:01.277Z,95.90
2018-07-04T11:29:49.792Z,95.90
2018-07-04T11:32:37.146Z,95.80
2018-07-04T11:35:24.747Z,95.10
2018-07-04T11:38:12.175Z,94.40
2018-07-04T11:43:41.407Z,93.90
2018-07-04T11:46:16.751Z,93.90
2018-07-04T11:48:45.739Z,93.30
2018-07-04T11:51:14.844Z,94.20
2018-07-04T11:53:44.102Z,92.70
2018-07-04T11:56:13.017Z,90.60
2018-07-04T11:58:42.010Z,88.40
2018-07-04T12:01:11.172Z,88.20
2018-07-04T12:03:53.089Z,87.40
2018-07-04T12:06:40.703Z,88.00
2018-07-04T12:09:15.815Z,88.30
2018-07-04T12:11:44.604Z,86.20
2018-07-04T12:14:13.772Z,86.80
2018-07-04T12:16:42.916Z,86.20
2018-07-04T12:19:12.178Z,87.40
2018-07-04T12:21:41.178Z,88.50
2018-07-04T12:24:10.511Z,90.00
2018-07-04T12:26:39.660Z,90.20
2018-07-04T12:29:09.694Z,90.70
2018-07-04T12:31:40.136Z,91.50
2018-07-04T12:34:09.667Z,92.70
2018-07-04T12:36:38.803Z,92.70
2018-07-04T12:41:37.343Z,93.30
2018-07-04T12:44:06.245Z,92.40
2018-07-04T12:46:35.162Z,90.80
2018-07-04T12:49:04.954Z,90.40
2018-07-04T12:51:34.981Z,90.60
2018-07-04T12:54:08.811Z,90.10
2018-07-04T12:56:50.186Z,89.10
2018-07-04T12:59:37.937Z,89.90
2018-07-04T13:02:25.828Z,91.50
2018-07-04T13:05:13.234Z,92.50
2018-07-04T13:08:00.463Z,92.30
2018-07-04T13:10:48.154Z,94.90
2018-07-04T13:13:35.515Z,94.30
2018-07-04T13:16:23.282Z,94.40
2018-07-04T13:19:10.281Z,96.10
2018-07-04T13:21:57.415Z,97.50
2018-07-04T13:24:45.044Z,99.50
2018-07-04T13:27:32.551Z,98.60
2018-07-04T13:30:19.967Z,99.50
2018-07-04T13:33:10.888Z,99.90
2018-07-04T13:35:58.427Z,99.90
2018-07-04T13:41:27.720Z,99.60
2018-07-04T13:44:15.634Z,99.90
2018-07-04T13:47:03.297Z,99.90
2018-07-04T13:49:51.214Z,99.90
2018-07-04T13:52:38.673Z,99.90
2018-07-04T13:55:26.376Z,99.90
2018-07-04T14:00:55.949Z,99.90
2018-07-04T14:03:43.307Z,99.90
2018-07-04T14:09:12.170Z,99.90
2018-07-04T14:11:59.604Z,99.90
2018-07-04T14:14:47.155Z,99.90
2018-07-04T14:17:34.787Z,99.90
2018-07-04T14:20:22.211Z,99.90
2018-07-04T14:23:09.839Z,99.90
2018-07-04T14:25:57.351Z,99.90
2018-07-04T14:28:45.223Z,99.90
2018-07-04T14:31:32.544Z,99.90
2018-07-04T14:34:21.371Z,99.90
2018-07-04T14:37:08.694Z,99.90
2018-07-04T14:39:56.472Z,99.90
2018-07-04T14:42:43.869Z,99.90
2018-07-04T14:45:32.139Z,99.90
2018-07-04T14:48:19.774Z,99.90
2018-07-04T14:51:07.551Z,99.90
2018-07-04T14:53:54.727Z,99.90
2018-07-04T14:56:42.264Z,99.90
2018-07-04T14:59:29.548Z,99.90
2018-07-04T15:02:16.966Z,99.90
2018-07-04T15:05:05.090Z,99.90
2018-07-04T15:07:52.879Z,99.90
2018-07-04T15:10:40.321Z,99.90
2018-07-04T15:13:28.239Z,99.90
2018-07-04T15:16:15.639Z,99.90
2018-07-04T15:19:03.082Z,99.90
2018-07-04T15:21:50.397Z,99.90
2018-07-04T15:24:38.158Z,99.90
2018-07-04T15:27:25.556Z,99.90
2018-07-04T15:30:12.984Z,99.90
2018-07-04T15:33:00.420Z,99.90
2018-07-04T15:35:50.706Z,99.90
2018-07-04T15:38:38.145Z,99.90
2018-07-04T15:41:25.683Z,99.90
2018-07-04T15:44:13.036Z,99.90
2018-07-04T15:47:00.634Z,99.90
2018-07-04T15:49:51.233Z,99.90
2018-07-04T15:52:38.951Z,99.90
2018-07-04T15:55:26.484Z,99.90
2018-07-04T15:58:14.052Z,99.90
2018-07-04T16:01:01.436Z,99.90
2018-07-04T16:03:48.966Z,99.90
2018-07-04T16:06:36.391Z,99.90
2018-07-04T16:09:24.197Z,99.90
2018-07-04T16:12:11.452Z,99.90
2018-07-04T16:14:59.247Z,99.90
2018-07-04T16:17:46.751Z,99.90
2018-07-04T16:20:34.629Z,99.90
2018-07-04T16:23:21.894Z,99.90
2018-07-04T16:26:10.799Z,99.90
2018-07-04T16:28:57.874Z,99.90
2018-07-04T16:31:45.605Z,99.90
2018-07-04T16:37:15.529Z,99.90
2018-07-04T16:40:03.051Z,99.90
2018-07-04T16:42:50.816Z,99.90
2018-07-04T16:45:38.774Z,99.90
2018-07-04T16:48:26.364Z,99.90
2018-07-04T16:51:23.670Z,99.90
2018-07-04T16:54:11.627Z,99.90
2018-07-04T16:59:41.490Z,99.90
2018-07-04T17:02:28.924Z,99.90
2018-07-04T17:05:20.566Z,99.90
2018-07-04T17:08:08.226Z,99.90
2018-07-04T17:10:56.025Z,99.90
2018-07-04T17:13:43.651Z,99.90
2018-07-04T17:16:31.375Z,99.90
2018-07-04T17:19:18.707Z,99.90
2018-07-04T17:22:07.103Z,99.90
2018-07-04T17:24:54.636Z,99.90
2018-07-04T17:27:42.438Z,99.90
2018-07-04T17:30:29.862Z,99.90
2018-07-04T17:33:17.679Z,99.90
2018-07-04T17:38:47.570Z,99.90
2018-07-04T17:41:35.272Z,99.90
2018-07-04T17:44:22.994Z,99.90
2018-07-04T17:49:52.011Z,99.90
2018-07-04T17:52:39.334Z,99.90
2018-07-04T17:55:26.855Z,99.90
2018-07-04T17:58:14.074Z,99.90
2018-07-04T18:01:01.706Z,99.90
2018-07-04T18:03:49.042Z,99.90
2018-07-04T18:06:36.701Z,99.90
2018-07-04T18:09:24.094Z,99.90
2018-07-04T18:12:11.711Z,99.90
2018-07-04T18:15:03.557Z,99.90
2018-07-04T18:17:51.879Z,99.90
2018-07-04T18:20:47.928Z,99.90
2018-07-04T18:23:36.220Z,99.90
2018-07-04T18:26:23.292Z,99.90
2018-07-04T18:31:52.108Z,99.90
2018-07-04T18:34:41.108Z,99.90
2018-07-04T18:37:29.727Z,99.90
2018-07-04T18:40:18.051Z,99.90
2018-07-04T18:45:47.419Z,99.90
2018-07-04T18:48:35.164Z,99.90
2018-07-04T18:51:22.893Z,99.90
2018-07-04T18:54:10.280Z,99.90
2018-07-04T18:56:58.325Z,99.90
2018-07-04T18:59:47.225Z,99.90
2018-07-04T19:05:17.986Z,99.90
2018-07-04T19:08:05.795Z,99.90
2018-07-04T19:10:54.269Z,99.90
2018-07-04T19:13:42.383Z,99.90
2018-07-04T19:16:29.749Z,99.90
2018-07-04T19:19:17.347Z,99.90
2018-07-04T19:22:04.779Z,99.90
2018-07-04T19:24:52.493Z,99.90
2018-07-04T19:27:39.963Z,99.90
2018-07-04T19:30:27.826Z,99.90
2018-07-04T19:33:15.159Z,99.90
2018-07-04T19:36:03.023Z,99.90
2018-07-04T19:41:33.037Z,99.90
2018-07-04T19:44:20.313Z,99.90
2018-07-04T19:47:08.092Z,99.90
2018-07-04T19:49:55.378Z,99.90
2018-07-04T19:52:43.159Z,99.90
2018-07-04T19:55:30.407Z,99.90
2018-07-04T19:58:18.321Z,99.90
2018-07-04T20:01:06.025Z,99.90
2018-07-04T20:03:54.124Z,99.90
2018-07-04T20:06:41.571Z,99.90
2018-07-04T20:09:29.183Z,99.90
2018-07-04T20:12:16.808Z,99.90
2018-07-04T20:15:04.370Z,99.90
2018-07-04T20:20:33.198Z,99.90
2018-07-04T20:23:20.810Z,99.90
2018-07-04T20:26:08.327Z,99.90
2018-07-04T20:28:55.575Z,99.90
2018-07-04T20:31:43.240Z,99.90
2018-07-04T20:34:30.495Z,99.90
2018-07-04T20:37:18.401Z,99.90
2018-07-04T20:42:49.807Z,99.90
2018-07-04T20:45:37.122Z,99.90
2018-07-04T20:48:24.780Z,99.90
2018-07-04T20:51:12.077Z,99.90
2018-07-04T20:53:59.861Z,99.90
2018-07-04T20:56:47.320Z,99.90
2018-07-04T20:59:34.998Z,99.90
2018-07-04T21:02:22.830Z,99.90
2018-07-04T21:05:10.891Z,99.90
2018-07-04T21:07:57.898Z,99.90
2018-07-04T21:10:45.522Z,99.90
2018-07-04T21:13:32.919Z,99.90
2018-07-04T21:16:20.601Z,99.90
2018-07-04T21:19:08.114Z,99.90
2018-07-04T21:21:55.761Z,99.90
2018-07-04T21:24:43.359Z,99.90
2018-07-04T21:27:31.185Z,99.90
2018-07-04T21:30:18.451Z,99.90
2018-07-04T21:38:28.951Z,99.90
2018-07-04T21:41:16.178Z,99.90
2018-07-04T21:44:04.933Z,99.90
2018-07-04T21:46:52.242Z,99.90
2018-07-04T21:49:40.054Z,99.90
2018-07-04T21:52:27.524Z,99.90
2018-07-04T21:55:15.113Z,99.90
2018-07-04T21:58:02.580Z,99.90
2018-07-04T22:00:50.106Z,99.90
2018-07-04T22:03:37.790Z,99.90
2018-07-04T22:06:25.298Z,99.90
2018-07-04T22:09:12.454Z,99.90
2018-07-04T22:12:00.026Z,99.90
2018-07-04T22:14:47.337Z,99.90
2018-07-04T22:17:34.981Z,99.90
2018-07-04T22:20:22.267Z,99.90
2018-07-04T22:23:09.830Z,99.90
2018-07-04T22:25:57.119Z,99.90
2018-07-04T22:28:44.652Z,99.90
2018-07-04T22:31:31.971Z,99.90
2018-07-04T22:34:19.670Z,99.90
2018-07-04T22:37:07.025Z,99.90
2018-07-04T22:39:54.770Z,99.90
2018-07-04T22:42:42.070Z,99.90
2018-07-04T22:45:30.746Z,99.90
2018-07-04T22:48:18.381Z,99.90
2018-07-04T22:51:06.002Z,99.90
2018-07-04T22:53:53.331Z,99.90
2018-07-04T22:56:41.066Z,99.90
2018-07-04T22:59:28.285Z,99.90
2018-07-04T23:04:57.202Z,99.90
2018-07-04T23:07:44.626Z,99.90
2018-07-04T23:10:31.587Z,99.90
2018-07-04T23:13:19.387Z,99.90
2018-07-04T23:16:06.819Z,99.90
2018-07-04T23:18:54.444Z,99.90
2018-07-04T23:21:41.819Z,99.90
2018-07-04T23:24:29.394Z,99.90
2018-07-04T23:27:16.926Z,99.90
2018-07-04T23:30:04.459Z,99.90
2018-07-04T23:32:51.876Z,99.90
2018-07-04T23:35:39.546Z,99.90
2018-07-04T23:38:26.829Z,99.90
2018-07-04T23:41:15.599Z,99.90
2018-07-04T23:44:04.100Z,99.90
2018-07-04T23:46:51.810Z,99.90
2018-07-04T23:49:39.235Z,99.90
2018-07-04T23:55:08.228Z,99.90
2018-07-04T23:57:56.090Z,99.90
